sensor_id;sensor_type;location;lat;lon;timestamp;P1;durP1;ratioP1;P2;durP2;ratioP2
76053;SDS011;64752;48.870;9.082;2023-10-09T00:01:25;23.63;;;6.78;;
76053;SDS011;64752;48.870;9.082;2023-10-09T00:03:51;23.50;;;6.40;;
76053;SDS011;64752;48.870;9.082;2023-10-09T00:06:19;19.30;;;6.60;;
76053;SDS011;64752;48.870;9.082;2023-10-09T00:08:55;26.10;;;7.10;;
76053;SDS011;64752;48.870;9.082;2023-10-09T00:11:21;23.70;;;6.47;;
76053;SDS011;64752;48.870;9.082;2023-10-09T00:13:51;27.58;;;6.68;;
76053;SDS011;64752;48.870;9.082;2023-10-09T00:16:22;28.67;;;6.97;;
76053;SDS011;64752;48.870;9.082;2023-10-09T00:19:08;33.35;;;6.43;;
76053;SDS011;64752;48.870;9.082;2023-10-09T00:21:48;26.13;;;6.57;;
76053;SDS011;64752;48.870;9.082;2023-10-09T00:24:15;26.17;;;6.40;;
76053;SDS011;64752;48.870;9.082;2023-10-09T00:26:49;18.92;;;6.50;;
76053;SDS011;64752;48.870;9.082;2023-10-09T00:29:15;23.98;;;6.22;;
76053;SDS011;64752;48.870;9.082;2023-10-09T00:31:50;26.52;;;7.28;;
76053;SDS011;64752;48.870;9.082;2023-10-09T00:34:30;32.05;;;7.55;;
76053;SDS011;64752;48.870;9.082;2023-10-09T00:37:04;25.05;;;6.60;;
76053;SDS011;64752;48.870;9.082;2023-10-09T00:39:34;31.85;;;6.85;;
76053;SDS011;64752;48.870;9.082;2023-10-09T00:42:08;32.05;;;6.68;;
76053;SDS011;64752;48.870;9.082;2023-10-09T00:44:37;23.23;;;6.57;;
76053;SDS011;64752;48.870;9.082;2023-10-09T00:47:05;37.28;;;7.30;;
76053;SDS011;64752;48.870;9.082;2023-10-09T00:49:36;28.40;;;6.03;;
76053;SDS011;64752;48.870;9.082;2023-10-09T00:52:06;26.42;;;6.55;;
76053;SDS011;64752;48.870;9.082;2023-10-09T00:54:42;29.15;;;6.70;;
76053;SDS011;64752;48.870;9.082;2023-10-09T00:57:09;23.13;;;7.10;;
76053;SDS011;64752;48.870;9.082;2023-10-09T00:59:38;20.98;;;6.07;;
76053;SDS011;64752;48.870;9.082;2023-10-09T01:02:08;26.35;;;6.22;;
76053;SDS011;64752;48.870;9.082;2023-10-09T01:04:34;26.15;;;6.57;;
76053;SDS011;64752;48.870;9.082;2023-10-09T01:07:06;24.92;;;7.13;;
76053;SDS011;64752;48.870;9.082;2023-10-09T01:09:41;28.20;;;6.28;;
76053;SDS011;64752;48.870;9.082;2023-10-09T01:12:10;21.55;;;5.97;;
76053;SDS011;64752;48.870;9.082;2023-10-09T01:14:44;26.92;;;6.45;;
76053;SDS011;64752;48.870;9.082;2023-10-09T01:17:10;20.15;;;5.40;;
76053;SDS011;64752;48.870;9.082;2023-10-09T01:19:37;24.27;;;6.95;;
76053;SDS011;64752;48.870;9.082;2023-10-09T01:22:02;22.55;;;6.40;;
76053;SDS011;64752;48.870;9.082;2023-10-09T01:24:38;27.35;;;6.85;;
76053;SDS011;64752;48.870;9.082;2023-10-09T01:27:04;26.95;;;6.15;;
76053;SDS011;64752;48.870;9.082;2023-10-09T01:29:37;28.13;;;6.28;;
76053;SDS011;64752;48.870;9.082;2023-10-09T01:32:05;28.27;;;6.57;;
76053;SDS011;64752;48.870;9.082;2023-10-09T01:34:32;34.72;;;7.30;;
76053;SDS011;64752;48.870;9.082;2023-10-09T01:37:15;23.00;;;5.78;;
76053;SDS011;64752;48.870;9.082;2023-10-09T01:39:47;24.15;;;5.80;;
76053;SDS011;64752;48.870;9.082;2023-10-09T01:42:23;30.08;;;6.63;;
76053;SDS011;64752;48.870;9.082;2023-10-09T01:45:09;30.05;;;6.32;;
76053;SDS011;64752;48.870;9.082;2023-10-09T01:47:35;20.35;;;6.95;;
76053;SDS011;64752;48.870;9.082;2023-10-09T01:52:30;25.35;;;5.88;;
76053;SDS011;64752;48.870;9.082;2023-10-09T01:54:55;26.85;;;6.18;;
76053;SDS011;64752;48.870;9.082;2023-10-09T01:57:27;23.42;;;6.30;;
76053;SDS011;64752;48.870;9.082;2023-10-09T01:59:55;28.52;;;6.55;;
76053;SDS011;64752;48.870;9.082;2023-10-09T02:02:22;29.70;;;6.45;;
76053;SDS011;64752;48.870;9.082;2023-10-09T02:04:59;20.50;;;6.22;;
76053;SDS011;64752;48.870;9.082;2023-10-09T02:07:38;27.02;;;6.10;;
76053;SDS011;64752;48.870;9.082;2023-10-09T02:10:13;27.00;;;5.82;;
76053;SDS011;64752;48.870;9.082;2023-10-09T02:12:53;25.70;;;6.03;;
76053;SDS011;64752;48.870;9.082;2023-10-09T02:15:27;27.50;;;6.40;;
76053;SDS011;64752;48.870;9.082;2023-10-09T02:18:08;25.40;;;6.00;;
76053;SDS011;64752;48.870;9.082;2023-10-09T02:20:43;31.73;;;6.70;;
76053;SDS011;64752;48.870;9.082;2023-10-09T02:23:20;23.55;;;6.75;;
76053;SDS011;64752;48.870;9.082;2023-10-09T02:25:50;22.05;;;6.40;;
76053;SDS011;64752;48.870;9.082;2023-10-09T02:28:18;25.77;;;6.40;;
76053;SDS011;64752;48.870;9.082;2023-10-09T02:30:47;23.27;;;6.43;;
76053;SDS011;64752;48.870;9.082;2023-10-09T02:33:15;25.20;;;6.57;;
76053;SDS011;64752;48.870;9.082;2023-10-09T02:35:46;25.00;;;6.45;;
76053;SDS011;64752;48.870;9.082;2023-10-09T02:38:16;31.23;;;6.00;;
76053;SDS011;64752;48.870;9.082;2023-10-09T02:40:42;34.90;;;6.83;;
76053;SDS011;64752;48.870;9.082;2023-10-09T02:43:30;27.58;;;6.30;;
76053;SDS011;64752;48.870;9.082;2023-10-09T02:46:09;28.27;;;6.65;;
76053;SDS011;64752;48.870;9.082;2023-10-09T02:48:54;27.40;;;6.25;;
76053;SDS011;64752;48.870;9.082;2023-10-09T02:51:27;24.75;;;6.40;;
76053;SDS011;64752;48.870;9.082;2023-10-09T02:53:53;23.45;;;6.45;;
76053;SDS011;64752;48.870;9.082;2023-10-09T02:58:53;31.27;;;6.18;;
76053;SDS011;64752;48.870;9.082;2023-10-09T03:01:18;24.20;;;5.60;;
76053;SDS011;64752;48.870;9.082;2023-10-09T03:03:44;24.63;;;6.07;;
76053;SDS011;64752;48.870;9.082;2023-10-09T03:06:10;22.23;;;6.60;;
76053;SDS011;64752;48.870;9.082;2023-10-09T03:08:39;29.33;;;6.10;;
76053;SDS011;64752;48.870;9.082;2023-10-09T03:11:07;28.70;;;6.50;;
76053;SDS011;64752;48.870;9.082;2023-10-09T03:13:38;15.65;;;5.85;;
76053;SDS011;64752;48.870;9.082;2023-10-09T03:16:10;21.27;;;6.18;;
76053;SDS011;64752;48.870;9.082;2023-10-09T03:18:53;22.83;;;6.70;;
76053;SDS011;64752;48.870;9.082;2023-10-09T03:21:19;18.90;;;5.45;;
76053;SDS011;64752;48.870;9.082;2023-10-09T03:23:45;21.93;;;6.30;;
76053;SDS011;64752;48.870;9.082;2023-10-09T03:26:15;32.08;;;6.32;;
76053;SDS011;64752;48.870;9.082;2023-10-09T03:28:42;21.15;;;6.28;;
76053;SDS011;64752;48.870;9.082;2023-10-09T03:31:10;29.17;;;7.07;;
76053;SDS011;64752;48.870;9.082;2023-10-09T03:33:35;24.23;;;6.85;;
76053;SDS011;64752;48.870;9.082;2023-10-09T03:36:01;23.65;;;6.20;;
76053;SDS011;64752;48.870;9.082;2023-10-09T03:38:32;25.17;;;6.47;;
76053;SDS011;64752;48.870;9.082;2023-10-09T03:41:03;19.92;;;5.97;;
76053;SDS011;64752;48.870;9.082;2023-10-09T03:43:33;31.98;;;6.72;;
76053;SDS011;64752;48.870;9.082;2023-10-09T03:46:02;25.55;;;6.05;;
76053;SDS011;64752;48.870;9.082;2023-10-09T03:48:30;26.70;;;6.60;;
76053;SDS011;64752;48.870;9.082;2023-10-09T03:51:00;31.08;;;6.38;;
76053;SDS011;64752;48.870;9.082;2023-10-09T03:53:36;28.13;;;6.43;;
76053;SDS011;64752;48.870;9.082;2023-10-09T03:56:02;24.02;;;6.05;;
76053;SDS011;64752;48.870;9.082;2023-10-09T03:58:36;27.42;;;6.20;;
76053;SDS011;64752;48.870;9.082;2023-10-09T04:01:07;28.58;;;6.35;;
76053;SDS011;64752;48.870;9.082;2023-10-09T04:03:32;23.95;;;6.50;;
76053;SDS011;64752;48.870;9.082;2023-10-09T04:06:00;23.70;;;6.38;;
76053;SDS011;64752;48.870;9.082;2023-10-09T04:08:26;17.45;;;6.03;;
76053;SDS011;64752;48.870;9.082;2023-10-09T04:10:55;18.98;;;6.18;;
76053;SDS011;64752;48.870;9.082;2023-10-09T04:13:27;22.05;;;6.82;;
76053;SDS011;64752;48.870;9.082;2023-10-09T04:16:00;22.13;;;6.20;;
76053;SDS011;64752;48.870;9.082;2023-10-09T04:18:35;25.13;;;7.20;;
76053;SDS011;64752;48.870;9.082;2023-10-09T04:21:05;23.42;;;6.53;;
76053;SDS011;64752;48.870;9.082;2023-10-09T04:23:43;21.40;;;5.47;;
76053;SDS011;64752;48.870;9.082;2023-10-09T04:26:25;28.30;;;5.95;;
76053;SDS011;64752;48.870;9.082;2023-10-09T04:28:51;26.65;;;6.13;;
76053;SDS011;64752;48.870;9.082;2023-10-09T04:31:18;27.38;;;6.00;;
76053;SDS011;64752;48.870;9.082;2023-10-09T04:33:46;25.05;;;6.47;;
76053;SDS011;64752;48.870;9.082;2023-10-09T04:36:32;22.00;;;5.80;;
76053;SDS011;64752;48.870;9.082;2023-10-09T04:39:11;25.63;;;6.43;;
76053;SDS011;64752;48.870;9.082;2023-10-09T04:41:36;22.48;;;5.97;;
76053;SDS011;64752;48.870;9.082;2023-10-09T04:44:08;31.20;;;5.93;;
76053;SDS011;64752;48.870;9.082;2023-10-09T04:46:49;24.15;;;6.18;;
76053;SDS011;64752;48.870;9.082;2023-10-09T04:49:34;24.15;;;6.05;;
76053;SDS011;64752;48.870;9.082;2023-10-09T04:52:15;27.13;;;5.88;;
76053;SDS011;64752;48.870;9.082;2023-10-09T04:54:50;25.15;;;6.32;;
76053;SDS011;64752;48.870;9.082;2023-10-09T04:57:35;27.15;;;6.10;;
76053;SDS011;64752;48.870;9.082;2023-10-09T05:00:11;32.72;;;6.97;;
76053;SDS011;64752;48.870;9.082;2023-10-09T05:03:07;24.75;;;5.63;;
76053;SDS011;64752;48.870;9.082;2023-10-09T05:05:37;34.80;;;7.07;;
76053;SDS011;64752;48.870;9.082;2023-10-09T05:08:06;25.38;;;6.25;;
76053;SDS011;64752;48.870;9.082;2023-10-09T05:13:28;29.70;;;6.78;;
76053;SDS011;64752;48.870;9.082;2023-10-09T05:16:10;20.75;;;6.40;;
76053;SDS011;64752;48.870;9.082;2023-10-09T05:18:50;32.08;;;6.47;;
76053;SDS011;64752;48.870;9.082;2023-10-09T05:21:33;20.67;;;6.40;;
76053;SDS011;64752;48.870;9.082;2023-10-09T05:24:01;26.27;;;6.47;;
76053;SDS011;64752;48.870;9.082;2023-10-09T05:26:43;22.10;;;6.07;;
76053;SDS011;64752;48.870;9.082;2023-10-09T05:29:12;26.00;;;6.35;;
76053;SDS011;64752;48.870;9.082;2023-10-09T05:31:48;20.80;;;6.07;;
76053;SDS011;64752;48.870;9.082;2023-10-09T05:34:32;26.00;;;5.47;;
76053;SDS011;64752;48.870;9.082;2023-10-09T05:37:02;26.25;;;5.80;;
76053;SDS011;64752;48.870;9.082;2023-10-09T05:39:48;34.58;;;6.93;;
76053;SDS011;64752;48.870;9.082;2023-10-09T05:42:29;25.90;;;5.95;;
76053;SDS011;64752;48.870;9.082;2023-10-09T05:45:04;25.63;;;6.47;;
76053;SDS011;64752;48.870;9.082;2023-10-09T05:47:45;25.65;;;5.68;;
76053;SDS011;64752;48.870;9.082;2023-10-09T05:50:33;22.10;;;6.18;;
76053;SDS011;64752;48.870;9.082;2023-10-09T05:53:03;22.88;;;6.53;;
76053;SDS011;64752;48.870;9.082;2023-10-09T05:55:54;25.60;;;6.07;;
76053;SDS011;64752;48.870;9.082;2023-10-09T05:58:38;25.75;;;6.10;;
76053;SDS011;64752;48.870;9.082;2023-10-09T06:01:22;26.23;;;6.15;;
76053;SDS011;64752;48.870;9.082;2023-10-09T06:04:06;20.42;;;5.78;;
76053;SDS011;64752;48.870;9.082;2023-10-09T06:06:41;22.85;;;5.88;;
76053;SDS011;64752;48.870;9.082;2023-10-09T06:09:11;26.05;;;6.30;;
76053;SDS011;64752;48.870;9.082;2023-10-09T06:11:43;22.77;;;5.72;;
76053;SDS011;64752;48.870;9.082;2023-10-09T06:14:18;26.80;;;6.13;;
76053;SDS011;64752;48.870;9.082;2023-10-09T06:16:51;24.88;;;5.82;;
76053;SDS011;64752;48.870;9.082;2023-10-09T06:19:46;21.50;;;7.13;;
76053;SDS011;64752;48.870;9.082;2023-10-09T06:24:58;22.65;;;5.82;;
76053;SDS011;64752;48.870;9.082;2023-10-09T06:27:33;20.00;;;5.85;;
76053;SDS011;64752;48.870;9.082;2023-10-09T06:29:59;22.80;;;6.22;;
76053;SDS011;64752;48.870;9.082;2023-10-09T06:32:49;28.50;;;6.03;;
76053;SDS011;64752;48.870;9.082;2023-10-09T06:35:38;19.65;;;5.40;;
76053;SDS011;64752;48.870;9.082;2023-10-09T06:38:05;25.35;;;6.47;;
76053;SDS011;64752;48.870;9.082;2023-10-09T06:40:50;24.08;;;6.45;;
76053;SDS011;64752;48.870;9.082;2023-10-09T06:43:31;21.35;;;5.97;;
76053;SDS011;64752;48.870;9.082;2023-10-09T06:46:01;26.98;;;6.95;;
76053;SDS011;64752;48.870;9.082;2023-10-09T06:48:45;21.17;;;6.32;;
76053;SDS011;64752;48.870;9.082;2023-10-09T06:51:20;19.98;;;5.90;;
76053;SDS011;64752;48.870;9.082;2023-10-09T06:53:57;28.65;;;6.25;;
76053;SDS011;64752;48.870;9.082;2023-10-09T06:56:31;20.70;;;6.05;;
76053;SDS011;64752;48.870;9.082;2023-10-09T07:01:44;18.90;;;5.55;;
76053;SDS011;64752;48.870;9.082;2023-10-09T07:04:12;29.60;;;5.97;;
76053;SDS011;64752;48.870;9.082;2023-10-09T07:07:05;24.33;;;6.30;;
76053;SDS011;64752;48.870;9.082;2023-10-09T07:09:46;21.00;;;6.40;;
76053;SDS011;64752;48.870;9.082;2023-10-09T07:12:33;22.25;;;5.53;;
76053;SDS011;64752;48.870;9.082;2023-10-09T07:15:02;31.02;;;6.20;;
76053;SDS011;64752;48.870;9.082;2023-10-09T07:17:49;18.27;;;5.65;;
76053;SDS011;64752;48.870;9.082;2023-10-09T07:20:17;23.60;;;6.05;;
76053;SDS011;64752;48.870;9.082;2023-10-09T07:23:02;19.85;;;5.13;;
76053;SDS011;64752;48.870;9.082;2023-10-09T07:25:41;25.25;;;6.18;;
76053;SDS011;64752;48.870;9.082;2023-10-09T07:28:08;31.70;;;6.57;;
76053;SDS011;64752;48.870;9.082;2023-10-09T07:30:44;21.88;;;5.60;;
76053;SDS011;64752;48.870;9.082;2023-10-09T07:33:11;21.30;;;5.53;;
76053;SDS011;64752;48.870;9.082;2023-10-09T07:35:40;23.10;;;5.85;;
76053;SDS011;64752;48.870;9.082;2023-10-09T07:40:44;20.02;;;6.18;;
76053;SDS011;64752;48.870;9.082;2023-10-09T07:43:29;23.42;;;6.28;;
76053;SDS011;64752;48.870;9.082;2023-10-09T07:46:04;25.65;;;5.85;;
76053;SDS011;64752;48.870;9.082;2023-10-09T07:48:31;22.17;;;5.40;;
76053;SDS011;64752;48.870;9.082;2023-10-09T07:51:20;24.65;;;5.70;;
76053;SDS011;64752;48.870;9.082;2023-10-09T07:53:49;23.73;;;5.35;;
76053;SDS011;64752;48.870;9.082;2023-10-09T07:56:22;21.80;;;5.55;;
76053;SDS011;64752;48.870;9.082;2023-10-09T07:58:55;22.95;;;5.22;;
76053;SDS011;64752;48.870;9.082;2023-10-09T08:01:25;22.70;;;4.82;;
76053;SDS011;64752;48.870;9.082;2023-10-09T08:04:00;22.42;;;5.43;;
76053;SDS011;64752;48.870;9.082;2023-10-09T08:06:52;25.90;;;5.80;;
76053;SDS011;64752;48.870;9.082;2023-10-09T08:09:18;23.85;;;5.97;;
76053;SDS011;64752;48.870;9.082;2023-10-09T08:11:53;25.38;;;5.13;;
76053;SDS011;64752;48.870;9.082;2023-10-09T08:14:56;21.05;;;5.32;;
76053;SDS011;64752;48.870;9.082;2023-10-09T08:17:24;26.73;;;5.78;;
76053;SDS011;64752;48.870;9.082;2023-10-09T08:19:52;31.33;;;5.78;;
76053;SDS011;64752;48.870;9.082;2023-10-09T08:22:36;22.38;;;5.05;;
76053;SDS011;64752;48.870;9.082;2023-10-09T08:25:17;25.00;;;5.18;;
76053;SDS011;64752;48.870;9.082;2023-10-09T08:28:00;25.42;;;5.90;;
76053;SDS011;64752;48.870;9.082;2023-10-09T08:30:39;32.83;;;5.82;;
76053;SDS011;64752;48.870;9.082;2023-10-09T08:33:14;18.30;;;5.25;;
76053;SDS011;64752;48.870;9.082;2023-10-09T08:35:49;25.08;;;5.68;;
76053;SDS011;64752;48.870;9.082;2023-10-09T08:38:16;18.73;;;5.63;;
76053;SDS011;64752;48.870;9.082;2023-10-09T08:40:48;22.85;;;5.22;;
76053;SDS011;64752;48.870;9.082;2023-10-09T08:43:16;20.63;;;5.50;;
76053;SDS011;64752;48.870;9.082;2023-10-09T08:45:47;23.33;;;6.00;;
76053;SDS011;64752;48.870;9.082;2023-10-09T08:48:13;17.85;;;5.10;;
76053;SDS011;64752;48.870;9.082;2023-10-09T08:50:47;15.80;;;4.72;;
76053;SDS011;64752;48.870;9.082;2023-10-09T08:53:19;29.90;;;5.72;;
76053;SDS011;64752;48.870;9.082;2023-10-09T08:55:45;27.85;;;5.28;;
76053;SDS011;64752;48.870;9.082;2023-10-09T08:58:11;26.77;;;5.67;;
76053;SDS011;64752;48.870;9.082;2023-10-09T09:00:59;21.63;;;5.65;;
76053;SDS011;64752;48.870;9.082;2023-10-09T09:03:25;26.63;;;6.20;;
76053;SDS011;64752;48.870;9.082;2023-10-09T09:06:00;30.37;;;6.13;;
76053;SDS011;64752;48.870;9.082;2023-10-09T09:08:27;22.10;;;4.82;;
76053;SDS011;64752;48.870;9.082;2023-10-09T09:11:03;27.20;;;5.53;;
76053;SDS011;64752;48.870;9.082;2023-10-09T09:14:09;23.77;;;5.22;;
76053;SDS011;64752;48.870;9.082;2023-10-09T09:16:43;17.30;;;5.78;;
76053;SDS011;64752;48.870;9.082;2023-10-09T09:19:13;20.70;;;5.55;;
76053;SDS011;64752;48.870;9.082;2023-10-09T09:21:49;18.60;;;6.38;;
76053;SDS011;64752;48.870;9.082;2023-10-09T09:24:19;23.80;;;5.68;;
76053;SDS011;64752;48.870;9.082;2023-10-09T09:26:52;26.17;;;6.28;;
76053;SDS011;64752;48.870;9.082;2023-10-09T09:29:45;23.30;;;5.90;;
76053;SDS011;64752;48.870;9.082;2023-10-09T09:32:29;20.38;;;5.53;;
76053;SDS011;64752;48.870;9.082;2023-10-09T09:35:02;24.63;;;5.82;;
76053;SDS011;64752;48.870;9.082;2023-10-09T09:37:30;19.40;;;5.00;;
76053;SDS011;64752;48.870;9.082;2023-10-09T09:40:08;20.67;;;5.45;;
76053;SDS011;64752;48.870;9.082;2023-10-09T09:42:52;25.67;;;5.13;;
76053;SDS011;64752;48.870;9.082;2023-10-09T09:45:21;25.67;;;5.50;;
76053;SDS011;64752;48.870;9.082;2023-10-09T09:47:49;38.47;;;5.70;;
76053;SDS011;64752;48.870;9.082;2023-10-09T09:50:18;19.92;;;5.32;;
76053;SDS011;64752;48.870;9.082;2023-10-09T09:52:49;24.67;;;4.90;;
76053;SDS011;64752;48.870;9.082;2023-10-09T09:55:20;22.83;;;5.10;;
76053;SDS011;64752;48.870;9.082;2023-10-09T09:57:56;23.33;;;5.47;;
76053;SDS011;64752;48.870;9.082;2023-10-09T10:00:22;20.55;;;5.75;;
76053;SDS011;64752;48.870;9.082;2023-10-09T10:03:09;29.00;;;5.60;;
76053;SDS011;64752;48.870;9.082;2023-10-09T10:05:37;22.42;;;5.57;;
76053;SDS011;64752;48.870;9.082;2023-10-09T10:08:06;31.13;;;6.13;;
76053;SDS011;64752;48.870;9.082;2023-10-09T10:10:38;28.05;;;5.70;;
76053;SDS011;64752;48.870;9.082;2023-10-09T10:13:13;26.83;;;5.53;;
76053;SDS011;64752;48.870;9.082;2023-10-09T10:15:59;24.17;;;4.78;;
76053;SDS011;64752;48.870;9.082;2023-10-09T10:18:33;24.63;;;5.28;;
76053;SDS011;64752;48.870;9.082;2023-10-09T10:21:36;22.27;;;5.75;;
76053;SDS011;64752;48.870;9.082;2023-10-09T10:35:20;24.85;;;4.97;;
76053;SDS011;64752;48.870;9.082;2023-10-09T10:37:57;23.08;;;4.53;;
76053;SDS011;64752;48.870;9.082;2023-10-09T10:40:32;28.70;;;5.20;;
76053;SDS011;64752;48.870;9.082;2023-10-09T10:43:03;19.65;;;4.85;;
76053;SDS011;64752;48.870;9.082;2023-10-09T10:45:39;24.75;;;5.57;;
76053;SDS011;64752;48.870;9.082;2023-10-09T10:48:10;23.08;;;5.53;;
76053;SDS011;64752;48.870;9.082;2023-10-09T10:51:02;20.98;;;5.32;;
76053;SDS011;64752;48.870;9.082;2023-10-09T10:53:28;21.85;;;5.65;;
76053;SDS011;64752;48.870;9.082;2023-10-09T10:56:03;22.05;;;5.97;;
76053;SDS011;64752;48.870;9.082;2023-10-09T10:58:40;19.52;;;5.32;;
76053;SDS011;64752;48.870;9.082;2023-10-09T11:01:12;18.98;;;4.88;;
76053;SDS011;64752;48.870;9.082;2023-10-09T11:03:40;16.75;;;4.60;;
76053;SDS011;64752;48.870;9.082;2023-10-09T11:06:24;16.10;;;4.95;;
76053;SDS011;64752;48.870;9.082;2023-10-09T11:09:00;12.60;;;4.28;;
76053;SDS011;64752;48.870;9.082;2023-10-09T11:11:34;14.82;;;4.25;;
76053;SDS011;64752;48.870;9.082;2023-10-09T11:14:12;18.40;;;4.60;;
76053;SDS011;64752;48.870;9.082;2023-10-09T11:16:39;16.08;;;4.40;;
76053;SDS011;64752;48.870;9.082;2023-10-09T11:19:13;15.70;;;5.03;;
76053;SDS011;64752;48.870;9.082;2023-10-09T11:21:51;19.25;;;4.97;;
76053;SDS011;64752;48.870;9.082;2023-10-09T11:24:27;19.58;;;4.32;;
76053;SDS011;64752;48.870;9.082;2023-10-09T11:26:58;21.58;;;5.25;;
76053;SDS011;64752;48.870;9.082;2023-10-09T11:29:30;15.77;;;4.43;;
76053;SDS011;64752;48.870;9.082;2023-10-09T11:32:08;17.42;;;4.95;;
76053;SDS011;64752;48.870;9.082;2023-10-09T11:34:47;12.77;;;4.10;;
76053;SDS011;64752;48.870;9.082;2023-10-09T11:37:17;14.82;;;4.63;;
76053;SDS011;64752;48.870;9.082;2023-10-09T11:39:56;18.27;;;4.05;;
76053;SDS011;64752;48.870;9.082;2023-10-09T11:42:23;18.63;;;4.78;;
76053;SDS011;64752;48.870;9.082;2023-10-09T11:45:04;14.77;;;4.72;;
76053;SDS011;64752;48.870;9.082;2023-10-09T11:47:49;14.60;;;4.55;;
76053;SDS011;64752;48.870;9.082;2023-10-09T11:50:38;17.73;;;4.53;;
76053;SDS011;64752;48.870;9.082;2023-10-09T11:53:42;17.60;;;4.68;;
76053;SDS011;64752;48.870;9.082;2023-10-09T11:56:11;14.52;;;4.60;;
76053;SDS011;64752;48.870;9.082;2023-10-09T11:58:41;14.05;;;4.63;;
76053;SDS011;64752;48.870;9.082;2023-10-09T12:01:11;16.03;;;5.10;;
76053;SDS011;64752;48.870;9.082;2023-10-09T12:03:42;16.23;;;5.05;;
76053;SDS011;64752;48.870;9.082;2023-10-09T12:06:09;11.93;;;4.28;;
76053;SDS011;64752;48.870;9.082;2023-10-09T12:08:37;15.95;;;5.18;;
76053;SDS011;64752;48.870;9.082;2023-10-09T12:11:05;12.20;;;5.05;;
76053;SDS011;64752;48.870;9.082;2023-10-09T12:13:36;13.48;;;5.00;;
76053;SDS011;64752;48.870;9.082;2023-10-09T12:16:07;15.05;;;5.50;;
76053;SDS011;64752;48.870;9.082;2023-10-09T12:18:36;11.05;;;4.82;;
76053;SDS011;64752;48.870;9.082;2023-10-09T12:21:04;13.25;;;5.03;;
76053;SDS011;64752;48.870;9.082;2023-10-09T12:23:31;12.13;;;5.43;;
76053;SDS011;64752;48.870;9.082;2023-10-09T12:26:01;16.48;;;4.65;;
76053;SDS011;64752;48.870;9.082;2023-10-09T12:28:27;11.10;;;5.10;;
76053;SDS011;64752;48.870;9.082;2023-10-09T12:30:53;12.68;;;4.25;;
76053;SDS011;64752;48.870;9.082;2023-10-09T12:33:19;12.47;;;5.23;;
76053;SDS011;64752;48.870;9.082;2023-10-09T12:35:52;10.15;;;4.25;;
76053;SDS011;64752;48.870;9.082;2023-10-09T12:38:18;12.38;;;4.47;;
76053;SDS011;64752;48.870;9.082;2023-10-09T12:40:47;13.50;;;5.38;;
76053;SDS011;64752;48.870;9.082;2023-10-09T12:43:18;14.40;;;5.07;;
76053;SDS011;64752;48.870;9.082;2023-10-09T12:45:45;19.05;;;5.32;;
76053;SDS011;64752;48.870;9.082;2023-10-09T12:48:10;18.42;;;4.97;;
76053;SDS011;64752;48.870;9.082;2023-10-09T12:50:37;11.75;;;4.15;;
76053;SDS011;64752;48.870;9.082;2023-10-09T12:53:09;13.73;;;5.07;;
76053;SDS011;64752;48.870;9.082;2023-10-09T12:55:38;16.85;;;4.75;;
76053;SDS011;64752;48.870;9.082;2023-10-09T12:58:07;11.73;;;4.68;;
76053;SDS011;64752;48.870;9.082;2023-10-09T13:00:37;16.35;;;5.22;;
76053;SDS011;64752;48.870;9.082;2023-10-09T13:03:09;12.80;;;4.75;;
76053;SDS011;64752;48.870;9.082;2023-10-09T13:05:50;14.38;;;4.75;;
76053;SDS011;64752;48.870;9.082;2023-10-09T13:08:21;11.32;;;4.78;;
76053;SDS011;64752;48.870;9.082;2023-10-09T13:10:49;15.18;;;4.70;;
76053;SDS011;64752;48.870;9.082;2023-10-09T13:13:24;18.23;;;5.40;;
76053;SDS011;64752;48.870;9.082;2023-10-09T13:16:01;13.30;;;5.15;;
76053;SDS011;64752;48.870;9.082;2023-10-09T13:18:31;13.32;;;6.03;;
76053;SDS011;64752;48.870;9.082;2023-10-09T13:20:56;17.17;;;5.53;;
76053;SDS011;64752;48.870;9.082;2023-10-09T13:23:21;13.87;;;5.70;;
76053;SDS011;64752;48.870;9.082;2023-10-09T13:25:50;16.98;;;5.80;;
76053;SDS011;64752;48.870;9.082;2023-10-09T13:28:15;17.27;;;6.47;;
76053;SDS011;64752;48.870;9.082;2023-10-09T13:30:45;13.50;;;6.47;;
76053;SDS011;64752;48.870;9.082;2023-10-09T13:33:14;11.82;;;6.75;;
76053;SDS011;64752;48.870;9.082;2023-10-09T13:35:42;15.05;;;6.90;;
76053;SDS011;64752;48.870;9.082;2023-10-09T13:38:15;18.90;;;6.75;;
76053;SDS011;64752;48.870;9.082;2023-10-09T13:40:41;15.18;;;7.38;;
76053;SDS011;64752;48.870;9.082;2023-10-09T13:43:07;13.73;;;7.00;;
76053;SDS011;64752;48.870;9.082;2023-10-09T13:45:39;11.50;;;6.43;;
76053;SDS011;64752;48.870;9.082;2023-10-09T13:48:04;11.77;;;6.37;;
76053;SDS011;64752;48.870;9.082;2023-10-09T13:50:29;15.35;;;7.28;;
76053;SDS011;64752;48.870;9.082;2023-10-09T13:52:58;13.45;;;6.60;;
76053;SDS011;64752;48.870;9.082;2023-10-09T13:57:56;12.45;;;7.20;;
76053;SDS011;64752;48.870;9.082;2023-10-09T14:03:08;14.27;;;7.22;;
76053;SDS011;64752;48.870;9.082;2023-10-09T14:05:44;13.63;;;7.32;;
76053;SDS011;64752;48.870;9.082;2023-10-09T14:08:30;16.50;;;6.93;;
76053;SDS011;64752;48.870;9.082;2023-10-09T14:10:55;14.20;;;7.37;;
76053;SDS011;64752;48.870;9.082;2023-10-09T14:13:21;14.00;;;7.23;;
76053;SDS011;64752;48.870;9.082;2023-10-09T14:15:53;18.30;;;7.35;;
76053;SDS011;64752;48.870;9.082;2023-10-09T14:18:19;14.70;;;7.63;;
76053;SDS011;64752;48.870;9.082;2023-10-09T14:20:46;13.68;;;7.50;;
76053;SDS011;64752;48.870;9.082;2023-10-09T14:23:11;18.13;;;7.40;;
76053;SDS011;64752;48.870;9.082;2023-10-09T14:25:45;15.10;;;7.63;;
76053;SDS011;64752;48.870;9.082;2023-10-09T14:28:14;17.38;;;7.65;;
76053;SDS011;64752;48.870;9.082;2023-10-09T14:30:44;15.30;;;6.80;;
76053;SDS011;64752;48.870;9.082;2023-10-09T14:33:12;13.48;;;7.40;;
76053;SDS011;64752;48.870;9.082;2023-10-09T14:35:38;15.83;;;7.40;;
76053;SDS011;64752;48.870;9.082;2023-10-09T14:38:05;12.88;;;7.07;;
76053;SDS011;64752;48.870;9.082;2023-10-09T14:40:36;16.25;;;7.18;;
76053;SDS011;64752;48.870;9.082;2023-10-09T14:43:06;18.38;;;7.53;;
76053;SDS011;64752;48.870;9.082;2023-10-09T14:45:36;17.42;;;7.30;;
76053;SDS011;64752;48.870;9.082;2023-10-09T14:48:02;17.70;;;7.05;;
76053;SDS011;64752;48.870;9.082;2023-10-09T14:50:28;18.45;;;7.65;;
76053;SDS011;64752;48.870;9.082;2023-10-09T14:52:54;19.63;;;7.70;;
76053;SDS011;64752;48.870;9.082;2023-10-09T14:55:19;17.27;;;7.63;;
76053;SDS011;64752;48.870;9.082;2023-10-09T14:57:53;26.70;;;8.35;;
76053;SDS011;64752;48.870;9.082;2023-10-09T15:00:19;17.23;;;7.65;;
76053;SDS011;64752;48.870;9.082;2023-10-09T15:02:48;15.48;;;6.75;;
76053;SDS011;64752;48.870;9.082;2023-10-09T15:05:15;19.70;;;7.07;;
76053;SDS011;64752;48.870;9.082;2023-10-09T15:07:41;16.80;;;6.50;;
76053;SDS011;64752;48.870;9.082;2023-10-09T15:10:06;21.03;;;7.50;;
76053;SDS011;64752;48.870;9.082;2023-10-09T15:12:34;22.73;;;7.95;;
76053;SDS011;64752;48.870;9.082;2023-10-09T15:15:05;22.05;;;7.15;;
76053;SDS011;64752;48.870;9.082;2023-10-09T15:17:38;16.98;;;7.20;;
76053;SDS011;64752;48.870;9.082;2023-10-09T15:20:06;25.35;;;8.05;;
76053;SDS011;64752;48.870;9.082;2023-10-09T15:22:35;23.92;;;8.77;;
76053;SDS011;64752;48.870;9.082;2023-10-09T15:25:01;17.42;;;7.97;;
76053;SDS011;64752;48.870;9.082;2023-10-09T15:27:27;22.73;;;7.13;;
76053;SDS011;64752;48.870;9.082;2023-10-09T15:32:19;18.15;;;6.85;;
76053;SDS011;64752;48.870;9.082;2023-10-09T15:34:47;18.55;;;6.55;;
76053;SDS011;64752;48.870;9.082;2023-10-09T15:37:13;17.90;;;6.90;;
76053;SDS011;64752;48.870;9.082;2023-10-09T15:39:38;22.37;;;6.63;;
76053;SDS011;64752;48.870;9.082;2023-10-09T15:42:04;15.20;;;7.10;;